sensor_id;sensor_type;location;lat;lon;timestamp;temperature;humidity
19552;DHT22;9921;47.186;9.778;2023-03-01T00:00:18;3.20;99.90
19552;DHT22;9921;47.186;9.778;2023-03-01T00:02:45;3.20;99.90
19552;DHT22;9921;47.186;9.778;2023-03-01T00:05:12;3.20;99.90
19552;DHT22;9921;47.186;9.778;2023-03-01T00:07:40;3.20;99.90
19552;DHT22;9921;47.186;9.778;2023-03-01T00:10:08;3.10;99.90
19552;DHT22;9921;47.186;9.778;2023-03-01T00:12:35;3.20;99.90
19552;DHT22;9921;47.186;9.778;2023-03-01T00:15:03;3.20;99.90
19552;DHT22;9921;47.186;9.778;2023-03-01T00:17:30;3.20;99.90
19552;DHT22;9921;47.186;9.778;2023-03-01T00:19:57;3.20;99.90
19552;DHT22;9921;47.186;9.778;2023-03-01T00:22:24;3.20;99.90
19552;DHT22;9921;47.186;9.778;2023-03-01T00:24:55;3.20;99.90
19552;DHT22;9921;47.186;9.778;2023-03-01T00:27:21;3.20;99.90
19552;DHT22;9921;47.186;9.778;2023-03-01T00:29:48;3.20;99.90
19552;DHT22;9921;47.186;9.778;2023-03-01T00:32:15;3.30;99.90
19552;DHT22;9921;47.186;9.778;2023-03-01T00:34:42;3.30;99.90
19552;DHT22;9921;47.186;9.778;2023-03-01T00:37:20;3.30;99.90
19552;DHT22;9921;47.186;9.778;2023-03-01T00:39:46;3.20;99.90
19552;DHT22;9921;47.186;9.778;2023-03-01T00:42:15;3.30;99.90
19552;DHT22;9921;47.186;9.778;2023-03-01T00:44:42;3.20;99.90
19552;DHT22;9921;47.186;9.778;2023-03-01T00:47:09;3.20;99.90
19552;DHT22;9921;47.186;9.778;2023-03-01T00:49:36;3.30;99.90
19552;DHT22;9921;47.186;9.778;2023-03-01T00:52:03;3.20;99.90
19552;DHT22;9921;47.186;9.778;2023-03-01T00:54:30;3.20;99.90
19552;DHT22;9921;47.186;9.778;2023-03-01T00:56:57;3.30;99.90
19552;DHT22;9921;47.186;9.778;2023-03-01T00:59:25;3.20;99.90
19552;DHT22;9921;47.186;9.778;2023-03-01T01:01:52;3.20;99.90
19552;DHT22;9921;47.186;9.778;2023-03-01T01:04:19;3.30;99.90
19552;DHT22;9921;47.186;9.778;2023-03-01T01:06:46;3.30;99.90
19552;DHT22;9921;47.186;9.778;2023-03-01T01:09:15;3.20;99.90
19552;DHT22;9921;47.186;9.778;2023-03-01T01:11:44;3.20;99.90
19552;DHT22;9921;47.186;9.778;2023-03-01T01:14:11;3.20;99.90
19552;DHT22;9921;47.186;9.778;2023-03-01T01:16:39;3.20;99.90
19552;DHT22;9921;47.186;9.778;2023-03-01T01:19:06;3.20;99.90
19552;DHT22;9921;47.186;9.778;2023-03-01T01:21:33;3.20;99.90
19552;DHT22;9921;47.186;9.778;2023-03-01T01:24:03;3.10;99.90
19552;DHT22;9921;47.186;9.778;2023-03-01T01:26:31;3.10;99.90
19552;DHT22;9921;47.186;9.778;2023-03-01T01:29:00;3.10;99.90
19552;DHT22;9921;47.186;9.778;2023-03-01T01:31:27;3.10;99.90
19552;DHT22;9921;47.186;9.778;2023-03-01T01:33:56;3.10;99.90
19552;DHT22;9921;47.186;9.778;2023-03-01T01:36:23;3.10;99.90
19552;DHT22;9921;47.186;9.778;2023-03-01T01:38:50;2.90;99.90
19552;DHT22;9921;47.186;9.778;2023-03-01T01:41:18;2.90;99.90
19552;DHT22;9921;47.186;9.778;2023-03-01T01:43:47;2.80;99.90
19552;DHT22;9921;47.186;9.778;2023-03-01T01:46:21;2.90;99.90
19552;DHT22;9921;47.186;9.778;2023-03-01T01:48:55;2.90;99.90
19552;DHT22;9921;47.186;9.778;2023-03-01T01:51:27;2.80;99.90
19552;DHT22;9921;47.186;9.778;2023-03-01T01:53:59;2.90;99.90
19552;DHT22;9921;47.186;9.778;2023-03-01T01:56:27;2.90;99.90
19552;DHT22;9921;47.186;9.778;2023-03-01T01:58:55;3.00;99.90
19552;DHT22;9921;47.186;9.778;2023-03-01T02:01:23;3.00;99.90
19552;DHT22;9921;47.186;9.778;2023-03-01T02:03:50;3.10;99.90
19552;DHT22;9921;47.186;9.778;2023-03-01T02:06:23;3.00;99.90
19552;DHT22;9921;47.186;9.778;2023-03-01T02:08:56;3.10;99.90
19552;DHT22;9921;47.186;9.778;2023-03-01T02:11:24;3.00;99.90
19552;DHT22;9921;47.186;9.778;2023-03-01T02:13:52;3.00;99.90
19552;DHT22;9921;47.186;9.778;2023-03-01T02:16:20;3.00;99.90
19552;DHT22;9921;47.186;9.778;2023-03-01T02:18:48;3.00;99.90
19552;DHT22;9921;47.186;9.778;2023-03-01T02:21:28;3.00;99.90
19552;DHT22;9921;47.186;9.778;2023-03-01T02:23:58;3.00;99.90
19552;DHT22;9921;47.186;9.778;2023-03-01T02:26:31;3.00;99.90
19552;DHT22;9921;47.186;9.778;2023-03-01T02:29:01;2.90;99.90
19552;DHT22;9921;47.186;9.778;2023-03-01T02:31:28;2.90;99.90
19552;DHT22;9921;47.186;9.778;2023-03-01T02:34:13;2.90;99.90
19552;DHT22;9921;47.186;9.778;2023-03-01T02:36:44;3.00;99.90
19552;DHT22;9921;47.186;9.778;2023-03-01T02:39:15;2.90;99.90
19552;DHT22;9921;47.186;9.778;2023-03-01T02:41:47;2.90;99.90
19552;DHT22;9921;47.186;9.778;2023-03-01T02:44:16;2.90;99.90
19552;DHT22;9921;47.186;9.778;2023-03-01T02:46:45;2.90;99.90
19552;DHT22;9921;47.186;9.778;2023-03-01T02:49:19;2.90;99.90
19552;DHT22;9921;47.186;9.778;2023-03-01T02:51:52;2.90;99.90
19552;DHT22;9921;47.186;9.778;2023-03-01T02:54:26;2.90;99.90
19552;DHT22;9921;47.186;9.778;2023-03-01T02:56:55;2.90;99.90
19552;DHT22;9921;47.186;9.778;2023-03-01T02:59:26;3.00;99.90
19552;DHT22;9921;47.186;9.778;2023-03-01T03:01:53;3.00;99.90
19552;DHT22;9921;47.186;9.778;2023-03-01T03:04:20;2.90;99.90
19552;DHT22;9921;47.186;9.778;2023-03-01T03:06:48;3.00;99.90
19552;DHT22;9921;47.186;9.778;2023-03-01T03:09:17;3.00;99.90
19552;DHT22;9921;47.186;9.778;2023-03-01T03:11:44;2.90;99.90
19552;DHT22;9921;47.186;9.778;2023-03-01T03:14:14;2.90;99.90
19552;DHT22;9921;47.186;9.778;2023-03-01T03:16:44;3.00;99.90
19552;DHT22;9921;47.186;9.778;2023-03-01T03:19:11;3.00;99.90
19552;DHT22;9921;47.186;9.778;2023-03-01T03:21:38;3.00;99.90
19552;DHT22;9921;47.186;9.778;2023-03-01T03:24:05;3.00;99.90
19552;DHT22;9921;47.186;9.778;2023-03-01T03:26:32;2.90;99.90
19552;DHT22;9921;47.186;9.778;2023-03-01T03:28:59;2.90;99.90
19552;DHT22;9921;47.186;9.778;2023-03-01T03:31:27;2.90;99.90
19552;DHT22;9921;47.186;9.778;2023-03-01T03:33:55;2.90;99.90
19552;DHT22;9921;47.186;9.778;2023-03-01T03:36:23;2.90;99.90
19552;DHT22;9921;47.186;9.778;2023-03-01T03:38:51;3.00;99.90
19552;DHT22;9921;47.186;9.778;2023-03-01T03:41:18;3.00;99.90
19552;DHT22;9921;47.186;9.778;2023-03-01T03:43:45;3.00;99.90
19552;DHT22;9921;47.186;9.778;2023-03-01T03:46:12;3.00;99.90
19552;DHT22;9921;47.186;9.778;2023-03-01T03:48:39;3.00;99.90
19552;DHT22;9921;47.186;9.778;2023-03-01T03:51:10;3.00;99.90
19552;DHT22;9921;47.186;9.778;2023-03-01T03:53:37;2.90;99.90
19552;DHT22;9921;47.186;9.778;2023-03-01T03:56:04;2.90;99.90
19552;DHT22;9921;47.186;9.778;2023-03-01T03:58:31;2.90;99.90
19552;DHT22;9921;47.186;9.778;2023-03-01T04:00:58;2.80;99.90
19552;DHT22;9921;47.186;9.778;2023-03-01T04:03:27;2.90;99.90
19552;DHT22;9921;47.186;9.778;2023-03-01T04:05:54;2.80;99.90
19552;DHT22;9921;47.186;9.778;2023-03-01T04:08:23;2.80;99.90
19552;DHT22;9921;47.186;9.778;2023-03-01T04:10:52;2.90;99.90
19552;DHT22;9921;47.186;9.778;2023-03-01T04:13:22;2.90;99.90
19552;DHT22;9921;47.186;9.778;2023-03-01T04:15:51;2.90;99.90
19552;DHT22;9921;47.186;9.778;2023-03-01T04:18:20;2.80;99.90
19552;DHT22;9921;47.186;9.778;2023-03-01T04:20:48;2.80;99.90
19552;DHT22;9921;47.186;9.778;2023-03-01T04:23:21;2.90;99.90
19552;DHT22;9921;47.186;9.778;2023-03-01T04:25:51;2.80;99.90
19552;DHT22;9921;47.186;9.778;2023-03-01T04:28:20;2.80;99.90
19552;DHT22;9921;47.186;9.778;2023-03-01T04:30:47;2.80;99.90
19552;DHT22;9921;47.186;9.778;2023-03-01T04:33:14;2.80;99.90
19552;DHT22;9921;47.186;9.778;2023-03-01T04:35:41;2.90;99.90
19552;DHT22;9921;47.186;9.778;2023-03-01T04:38:08;2.80;99.90
19552;DHT22;9921;47.186;9.778;2023-03-01T04:40:37;2.80;99.90
19552;DHT22;9921;47.186;9.778;2023-03-01T04:43:04;2.90;99.90
19552;DHT22;9921;47.186;9.778;2023-03-01T04:45:32;2.90;99.90
19552;DHT22;9921;47.186;9.778;2023-03-01T04:48:00;2.90;99.90
19552;DHT22;9921;47.186;9.778;2023-03-01T04:50:27;2.90;99.90
19552;DHT22;9921;47.186;9.778;2023-03-01T04:52:53;2.90;99.90
19552;DHT22;9921;47.186;9.778;2023-03-01T04:55:24;2.90;99.90
19552;DHT22;9921;47.186;9.778;2023-03-01T04:57:53;2.90;99.90
19552;DHT22;9921;47.186;9.778;2023-03-01T05:00:21;2.80;99.90
19552;DHT22;9921;47.186;9.778;2023-03-01T05:02:50;2.60;99.90
19552;DHT22;9921;47.186;9.778;2023-03-01T05:05:24;2.40;99.90
19552;DHT22;9921;47.186;9.778;2023-03-01T05:07:55;2.30;99.90
19552;DHT22;9921;47.186;9.778;2023-03-01T05:10:22;2.20;99.90
19552;DHT22;9921;47.186;9.778;2023-03-01T05:12:49;2.20;99.90
19552;DHT22;9921;47.186;9.778;2023-03-01T05:15:19;2.20;99.90
19552;DHT22;9921;47.186;9.778;2023-03-01T05:17:47;2.30;99.90
19552;DHT22;9921;47.186;9.778;2023-03-01T05:20:14;2.30;99.90
19552;DHT22;9921;47.186;9.778;2023-03-01T05:22:41;2.40;99.90
19552;DHT22;9921;47.186;9.778;2023-03-01T05:25:08;2.40;99.90
19552;DHT22;9921;47.186;9.778;2023-03-01T05:27:35;2.50;99.90
19552;DHT22;9921;47.186;9.778;2023-03-01T05:30:03;2.60;99.90
19552;DHT22;9921;47.186;9.778;2023-03-01T05:32:44;2.70;99.90
19552;DHT22;9921;47.186;9.778;2023-03-01T05:35:13;2.70;99.90
19552;DHT22;9921;47.186;9.778;2023-03-01T05:37:42;2.80;99.90
19552;DHT22;9921;47.186;9.778;2023-03-01T05:40:11;2.90;99.90
19552;DHT22;9921;47.186;9.778;2023-03-01T05:42:43;2.90;99.90
19552;DHT22;9921;47.186;9.778;2023-03-01T05:45:10;2.90;99.90
19552;DHT22;9921;47.186;9.778;2023-03-01T05:47:43;2.90;99.90
19552;DHT22;9921;47.186;9.778;2023-03-01T05:50:15;2.90;99.90
19552;DHT22;9921;47.186;9.778;2023-03-01T05:52:45;3.00;99.90
19552;DHT22;9921;47.186;9.778;2023-03-01T05:55:12;3.00;99.90
19552;DHT22;9921;47.186;9.778;2023-03-01T05:57:39;3.00;99.90
19552;DHT22;9921;47.186;9.778;2023-03-01T06:00:08;3.00;99.90
19552;DHT22;9921;47.186;9.778;2023-03-01T06:02:35;3.00;99.90
19552;DHT22;9921;47.186;9.778;2023-03-01T06:05:05;3.00;99.90
19552;DHT22;9921;47.186;9.778;2023-03-01T06:07:32;3.00;99.90
19552;DHT22;9921;47.186;9.778;2023-03-01T06:10:00;3.00;99.90
19552;DHT22;9921;47.186;9.778;2023-03-01T06:12:30;2.90;99.90
19552;DHT22;9921;47.186;9.778;2023-03-01T06:14:57;2.90;99.90
19552;DHT22;9921;47.186;9.778;2023-03-01T06:17:24;3.00;99.90
19552;DHT22;9921;47.186;9.778;2023-03-01T06:19:51;2.90;99.90
19552;DHT22;9921;47.186;9.778;2023-03-01T06:22:19;3.00;99.90
19552;DHT22;9921;47.186;9.778;2023-03-01T06:24:46;2.80;99.90
19552;DHT22;9921;47.186;9.778;2023-03-01T06:27:13;2.70;99.90
19552;DHT22;9921;47.186;9.778;2023-03-01T06:29:40;2.60;99.90
19552;DHT22;9921;47.186;9.778;2023-03-01T06:32:07;2.60;99.90
19552;DHT22;9921;47.186;9.778;2023-03-01T06:34:34;2.30;99.90
19552;DHT22;9921;47.186;9.778;2023-03-01T06:37:04;2.10;99.90
19552;DHT22;9921;47.186;9.778;2023-03-01T06:39:34;2.10;99.90
19552;DHT22;9921;47.186;9.778;2023-03-01T06:42:01;1.90;99.90
19552;DHT22;9921;47.186;9.778;2023-03-01T06:44:28;1.80;99.90
19552;DHT22;9921;47.186;9.778;2023-03-01T06:46:55;1.80;99.90
19552;DHT22;9921;47.186;9.778;2023-03-01T06:49:22;1.70;99.90
19552;DHT22;9921;47.186;9.778;2023-03-01T06:51:49;1.70;99.90
19552;DHT22;9921;47.186;9.778;2023-03-01T06:54:18;1.70;99.90
19552;DHT22;9921;47.186;9.778;2023-03-01T06:56:50;1.80;99.90
19552;DHT22;9921;47.186;9.778;2023-03-01T06:59:20;1.80;99.90
19552;DHT22;9921;47.186;9.778;2023-03-01T07:01:47;1.80;99.90
19552;DHT22;9921;47.186;9.778;2023-03-01T07:04:14;1.90;99.90
19552;DHT22;9921;47.186;9.778;2023-03-01T07:06:41;2.10;99.90
19552;DHT22;9921;47.186;9.778;2023-03-01T07:09:07;2.20;99.90
19552;DHT22;9921;47.186;9.778;2023-03-01T07:11:34;2.30;99.90
19552;DHT22;9921;47.186;9.778;2023-03-01T07:14:03;2.40;99.90
19552;DHT22;9921;47.186;9.778;2023-03-01T07:16:30;2.50;99.90
19552;DHT22;9921;47.186;9.778;2023-03-01T07:18:57;2.60;99.90
19552;DHT22;9921;47.186;9.778;2023-03-01T07:21:24;2.70;99.90
19552;DHT22;9921;47.186;9.778;2023-03-01T07:23:51;2.80;99.90
19552;DHT22;9921;47.186;9.778;2023-03-01T07:26:18;2.80;99.90
19552;DHT22;9921;47.186;9.778;2023-03-01T07:28:44;2.80;99.90
19552;DHT22;9921;47.186;9.778;2023-03-01T07:31:13;2.90;99.90
19552;DHT22;9921;47.186;9.778;2023-03-01T07:33:40;3.00;99.90
19552;DHT22;9921;47.186;9.778;2023-03-01T07:36:08;3.00;99.90
19552;DHT22;9921;47.186;9.778;2023-03-01T07:38:35;3.10;99.90
19552;DHT22;9921;47.186;9.778;2023-03-01T07:41:03;3.10;99.90
19552;DHT22;9921;47.186;9.778;2023-03-01T07:43:31;3.10;99.90
19552;DHT22;9921;47.186;9.778;2023-03-01T07:45:59;3.10;99.90
19552;DHT22;9921;47.186;9.778;2023-03-01T07:48:28;3.10;99.90
19552;DHT22;9921;47.186;9.778;2023-03-01T07:50:58;3.20;99.90
19552;DHT22;9921;47.186;9.778;2023-03-01T07:53:25;3.20;99.90
19552;DHT22;9921;47.186;9.778;2023-03-01T07:56:01;3.20;99.90
19552;DHT22;9921;47.186;9.778;2023-03-01T07:58:28;3.30;99.90
19552;DHT22;9921;47.186;9.778;2023-03-01T08:00:54;3.40;99.90
19552;DHT22;9921;47.186;9.778;2023-03-01T08:03:21;3.30;99.90
19552;DHT22;9921;47.186;9.778;2023-03-01T08:05:50;3.40;99.90
19552;DHT22;9921;47.186;9.778;2023-03-01T08:08:16;3.40;99.90
19552;DHT22;9921;47.186;9.778;2023-03-01T08:10:43;3.40;99.90
19552;DHT22;9921;47.186;9.778;2023-03-01T08:13:10;3.50;99.90
19552;DHT22;9921;47.186;9.778;2023-03-01T08:15:37;3.50;99.90
19552;DHT22;9921;47.186;9.778;2023-03-01T08:18:04;3.50;99.90
19552;DHT22;9921;47.186;9.778;2023-03-01T08:20:32;3.50;99.90
19552;DHT22;9921;47.186;9.778;2023-03-01T08:23:00;3.50;99.90
19552;DHT22;9921;47.186;9.778;2023-03-01T08:25:27;3.50;99.90
19552;DHT22;9921;47.186;9.778;2023-03-01T08:27:53;3.60;99.90
19552;DHT22;9921;47.186;9.778;2023-03-01T08:30:20;3.50;99.90
19552;DHT22;9921;47.186;9.778;2023-03-01T08:32:49;3.50;99.90
19552;DHT22;9921;47.186;9.778;2023-03-01T08:35:16;3.60;99.90
19552;DHT22;9921;47.186;9.778;2023-03-01T08:37:43;3.60;99.90
19552;DHT22;9921;47.186;9.778;2023-03-01T08:40:13;3.70;99.90
19552;DHT22;9921;47.186;9.778;2023-03-01T08:42:40;3.70;99.90
19552;DHT22;9921;47.186;9.778;2023-03-01T08:45:09;3.70;99.90
19552;DHT22;9921;47.186;9.778;2023-03-01T08:47:36;3.80;99.90
19552;DHT22;9921;47.186;9.778;2023-03-01T08:50:04;3.90;99.90
19552;DHT22;9921;47.186;9.778;2023-03-01T08:52:32;3.90;99.90
19552;DHT22;9921;47.186;9.778;2023-03-01T08:54:59;3.80;99.90
19552;DHT22;9921;47.186;9.778;2023-03-01T08:57:28;3.90;99.90
19552;DHT22;9921;47.186;9.778;2023-03-01T08:59:56;3.90;99.90
19552;DHT22;9921;47.186;9.778;2023-03-01T09:02:22;3.90;99.90
19552;DHT22;9921;47.186;9.778;2023-03-01T09:04:49;3.80;99.90
19552;DHT22;9921;47.186;9.778;2023-03-01T09:07:16;3.90;99.90
19552;DHT22;9921;47.186;9.778;2023-03-01T09:09:43;3.90;99.90
19552;DHT22;9921;47.186;9.778;2023-03-01T09:12:10;3.90;99.90
19552;DHT22;9921;47.186;9.778;2023-03-01T09:14:38;3.90;99.90
19552;DHT22;9921;47.186;9.778;2023-03-01T09:17:06;3.70;99.90
19552;DHT22;9921;47.186;9.778;2023-03-01T09:19:33;3.70;99.90
19552;DHT22;9921;47.186;9.778;2023-03-01T09:22:00;3.80;99.90
19552;DHT22;9921;47.186;9.778;2023-03-01T09:24:27;4.00;99.90
19552;DHT22;9921;47.186;9.778;2023-03-01T09:26:54;4.10;99.90
19552;DHT22;9921;47.186;9.778;2023-03-01T09:29:22;4.20;99.90
19552;DHT22;9921;47.186;9.778;2023-03-01T09:31:50;4.30;99.90
19552;DHT22;9921;47.186;9.778;2023-03-01T09:34:20;4.20;99.90
19552;DHT22;9921;47.186;9.778;2023-03-01T09:36:49;4.10;99.90
19552;DHT22;9921;47.186;9.778;2023-03-01T09:39:16;4.10;99.90
19552;DHT22;9921;47.186;9.778;2023-03-01T09:41:47;4.10;99.90
19552;DHT22;9921;47.186;9.778;2023-03-01T09:44:27;4.20;99.90
19552;DHT22;9921;47.186;9.778;2023-03-01T09:46:59;4.20;99.90
19552;DHT22;9921;47.186;9.778;2023-03-01T09:49:28;3.60;99.90
19552;DHT22;9921;47.186;9.778;2023-03-01T09:51:58;3.60;99.90
19552;DHT22;9921;47.186;9.778;2023-03-01T09:54:26;3.40;99.90
19552;DHT22;9921;47.186;9.778;2023-03-01T09:57:11;3.60;99.90
19552;DHT22;9921;47.186;9.778;2023-03-01T09:59:51;3.80;99.90
19552;DHT22;9921;47.186;9.778;2023-03-01T10:02:26;3.90;99.90
19552;DHT22;9921;47.186;9.778;2023-03-01T10:05:04;4.10;99.90
19552;DHT22;9921;47.186;9.778;2023-03-01T10:07:42;4.30;99.90
19552;DHT22;9921;47.186;9.778;2023-03-01T10:10:18;4.40;99.90
19552;DHT22;9921;47.186;9.778;2023-03-01T10:12:50;4.50;99.90
19552;DHT22;9921;47.186;9.778;2023-03-01T10:15:20;4.40;99.90
19552;DHT22;9921;47.186;9.778;2023-03-01T10:17:52;4.50;99.90
19552;DHT22;9921;47.186;9.778;2023-03-01T10:20:24;4.70;99.90
19552;DHT22;9921;47.186;9.778;2023-03-01T10:22:51;4.70;99.90
19552;DHT22;9921;47.186;9.778;2023-03-01T10:25:36;4.80;99.90
19552;DHT22;9921;47.186;9.778;2023-03-01T10:28:16;4.90;99.90
19552;DHT22;9921;47.186;9.778;2023-03-01T10:30:44;5.00;99.90
19552;DHT22;9921;47.186;9.778;2023-03-01T10:33:18;5.20;99.90
19552;DHT22;9921;47.186;9.778;2023-03-01T10:35:46;5.30;99.90
19552;DHT22;9921;47.186;9.778;2023-03-01T10:38:15;5.40;99.90
19552;DHT22;9921;47.186;9.778;2023-03-01T10:40:56;5.50;99.90
19552;DHT22;9921;47.186;9.778;2023-03-01T10:43:24;5.60;99.90
19552;DHT22;9921;47.186;9.778;2023-03-01T10:45:52;5.80;99.90
19552;DHT22;9921;47.186;9.778;2023-03-01T10:48:22;5.90;99.90
19552;DHT22;9921;47.186;9.778;2023-03-01T10:51:06;6.10;99.90
19552;DHT22;9921;47.186;9.778;2023-03-01T10:53:34;6.20;99.90
19552;DHT22;9921;47.186;9.778;2023-03-01T10:56:04;6.30;99.90
19552;DHT22;9921;47.186;9.778;2023-03-01T10:58:32;6.30;99.90
19552;DHT22;9921;47.186;9.778;2023-03-01T11:01:01;6.50;99.90
19552;DHT22;9921;47.186;9.778;2023-03-01T11:03:31;6.40;99.90
19552;DHT22;9921;47.186;9.778;2023-03-01T11:06:02;6.50;99.90
19552;DHT22;9921;47.186;9.778;2023-03-01T11:08:35;6.60;99.90
19552;DHT22;9921;47.186;9.778;2023-03-01T11:11:18;6.90;99.90
19552;DHT22;9921;47.186;9.778;2023-03-01T11:13:55;7.40;99.90
19552;DHT22;9921;47.186;9.778;2023-03-01T11:16:28;8.30;99.90
19552;DHT22;9921;47.186;9.778;2023-03-01T11:18:59;9.20;99.90
19552;DHT22;9921;47.186;9.778;2023-03-01T11:21:27;9.10;99.90
19552;DHT22;9921;47.186;9.778;2023-03-01T11:23:55;9.10;99.90
19552;DHT22;9921;47.186;9.778;2023-03-01T11:26:24;8.90;99.90
19552;DHT22;9921;47.186;9.778;2023-03-01T11:28:54;8.50;99.90
19552;DHT22;9921;47.186;9.778;2023-03-01T11:31:24;8.00;99.90
19552;DHT22;9921;47.186;9.778;2023-03-01T11:33:57;9.40;99.90
19552;DHT22;9921;47.186;9.778;2023-03-01T11:36:32;10.30;99.90
19552;DHT22;9921;47.186;9.778;2023-03-01T11:39:12;11.10;99.90
19552;DHT22;9921;47.186;9.778;2023-03-01T11:41:42;11.20;99.90
19552;DHT22;9921;47.186;9.778;2023-03-01T11:44:14;11.20;99.90
19552;DHT22;9921;47.186;9.778;2023-03-01T11:47:01;11.20;99.90
19552;DHT22;9921;47.186;9.778;2023-03-01T11:49:48;10.90;99.90
19552;DHT22;9921;47.186;9.778;2023-03-01T11:52:23;11.70;99.90
19552;DHT22;9921;47.186;9.778;2023-03-01T11:55:07;12.10;99.90
19552;DHT22;9921;47.186;9.778;2023-03-01T11:57:48;11.90;99.90
19552;DHT22;9921;47.186;9.778;2023-03-01T12:03:43;10.50;99.90
19552;DHT22;9921;47.186;9.778;2023-03-01T12:06:24;9.70;99.90
19552;DHT22;9921;47.186;9.778;2023-03-01T12:09:03;9.40;99.90
19552;DHT22;9921;47.186;9.778;2023-03-01T12:11:46;8.80;99.90
19552;DHT22;9921;47.186;9.778;2023-03-01T12:14:37;8.80;99.90
19552;DHT22;9921;47.186;9.778;2023-03-01T12:17:22;8.70;99.90
19552;DHT22;9921;47.186;9.778;2023-03-01T12:20:02;8.70;99.90
19552;DHT22;9921;47.186;9.778;2023-03-01T12:22:45;8.60;99.90
19552;DHT22;9921;47.186;9.778;2023-03-01T12:25:28;8.30;99.90
19552;DHT22;9921;47.186;9.778;2023-03-01T12:28:11;8.20;99.90
19552;DHT22;9921;47.186;9.778;2023-03-01T12:30:51;8.30;99.90
19552;DHT22;9921;47.186;9.778;2023-03-01T12:33:26;8.30;99.90
19552;DHT22;9921;47.186;9.778;2023-03-01T12:36:14;8.40;99.90
19552;DHT22;9921;47.186;9.778;2023-03-01T12:38:49;8.40;99.90
19552;DHT22;9921;47.186;9.778;2023-03-01T12:41:43;8.30;99.90
19552;DHT22;9921;47.186;9.778;2023-03-01T12:44:24;8.10;99.90
19552;DHT22;9921;47.186;9.778;2023-03-01T12:47:10;7.80;99.90
19552;DHT22;9921;47.186;9.778;2023-03-01T12:49:41;7.80;99.90
19552;DHT22;9921;47.186;9.778;2023-03-01T12:52:14;8.10;99.90
19552;DHT22;9921;47.186;9.778;2023-03-01T12:54:45;8.30;99.90
19552;DHT22;9921;47.186;9.778;2023-03-01T12:57:20;8.40;99.90
19552;DHT22;9921;47.186;9.778;2023-03-01T12:59:59;8.80;99.90
19552;DHT22;9921;47.186;9.778;2023-03-01T13:02:36;9.10;99.90
19552;DHT22;9921;47.186;9.778;2023-03-01T13:05:24;9.50;99.90
19552;DHT22;9921;47.186;9.778;2023-03-01T13:08:00;10.00;99.90
19552;DHT22;9921;47.186;9.778;2023-03-01T13:10:33;10.60;99.90
19552;DHT22;9921;47.186;9.778;2023-03-01T13:13:11;11.20;99.90
19552;DHT22;9921;47.186;9.778;2023-03-01T13:15:39;11.90;99.90
19552;DHT22;9921;47.186;9.778;2023-03-01T13:18:31;13.70;99.90
19552;DHT22;9921;47.186;9.778;2023-03-01T13:21:00;15.50;99.90
19552;DHT22;9921;47.186;9.778;2023-03-01T13:23:30;16.50;99.90
19552;DHT22;9921;47.186;9.778;2023-03-01T13:26:13;17.40;97.80
19552;DHT22;9921;47.186;9.778;2023-03-01T13:28:49;17.70;94.40
19552;DHT22;9921;47.186;9.778;2023-03-01T13:34:49;19.10;91.10
19552;DHT22;9921;47.186;9.778;2023-03-01T13:37:30;19.70;80.60
19552;DHT22;9921;47.186;9.778;2023-03-01T13:40:01;19.90;80.60
19552;DHT22;9921;47.186;9.778;2023-03-01T13:42:38;20.30;74.10
19552;DHT22;9921;47.186;9.778;2023-03-01T13:45:32;19.20;77.10
19552;DHT22;9921;47.186;9.778;2023-03-01T13:48:02;18.70;80.30
19552;DHT22;9921;47.186;9.778;2023-03-01T13:50:37;18.40;78.30
19552;DHT22;9921;47.186;9.778;2023-03-01T13:53:06;18.00;79.20
19552;DHT22;9921;47.186;9.778;2023-03-01T13:55:40;17.90;80.10
19552;DHT22;9921;47.186;9.778;2023-03-01T13:58:21;17.80;80.20
19552;DHT22;9921;47.186;9.778;2023-03-01T14:00:55;17.80;79.90
19552;DHT22;9921;47.186;9.778;2023-03-01T14:03:23;17.90;78.10
19552;DHT22;9921;47.186;9.778;2023-03-01T14:06:04;17.40;80.00
19552;DHT22;9921;47.186;9.778;2023-03-01T14:08:34;17.00;80.20
19552;DHT22;9921;47.186;9.778;2023-03-01T14:11:22;16.40;83.50
19552;DHT22;9921;47.186;9.778;2023-03-01T14:14:05;15.90;83.60
19552;DHT22;9921;47.186;9.778;2023-03-01T14:16:42;15.70;82.20
19552;DHT22;9921;47.186;9.778;2023-03-01T14:19:16;15.60;83.20
19552;DHT22;9921;47.186;9.778;2023-03-01T14:21:44;14.90;83.20
19552;DHT22;9921;47.186;9.778;2023-03-01T14:24:18;14.60;84.90
19552;DHT22;9921;47.186;9.778;2023-03-01T14:26:45;14.50;87.50
19552;DHT22;9921;47.186;9.778;2023-03-01T14:29:25;14.00;86.90
19552;DHT22;9921;47.186;9.778;2023-03-01T14:31:52;13.70;88.10
19552;DHT22;9921;47.186;9.778;2023-03-01T14:34:21;13.50;87.10
19552;DHT22;9921;47.186;9.778;2023-03-01T14:36:48;13.00;90.60
19552;DHT22;9921;47.186;9.778;2023-03-01T14:39:23;12.50;90.00
19552;DHT22;9921;47.186;9.778;2023-03-01T14:41:52;11.90;90.50
19552;DHT22;9921;47.186;9.778;2023-03-01T14:44:22;11.40;92.10
19552;DHT22;9921;47.186;9.778;2023-03-01T14:46:54;10.90;92.40
19552;DHT22;9921;47.186;9.778;2023-03-01T14:49:25;10.40;93.00
19552;DHT22;9921;47.186;9.778;2023-03-01T14:51:54;9.90;94.10
19552;DHT22;9921;47.186;9.778;2023-03-01T14:54:26;9.60;94.80
19552;DHT22;9921;47.186;9.778;2023-03-01T14:56:58;9.40;95.90
19552;DHT22;9921;47.186;9.778;2023-03-01T14:59:26;9.10;96.30
19552;DHT22;9921;47.186;9.778;2023-03-01T15:01:56;8.80;97.00
19552;DHT22;9921;47.186;9.778;2023-03-01T15:04:25;8.60;98.40
19552;DHT22;9921;47.186;9.778;2023-03-01T15:06:54;8.30;99.00
19552;DHT22;9921;47.186;9.778;2023-03-01T15:09:22;8.20;99.00
19552;DHT22;9921;47.186;9.778;2023-03-01T15:11:49;8.00;99.30
19552;DHT22;9921;47.186;9.778;2023-03-01T15:14:29;7.90;99.90
19552;DHT22;9921;47.186;9.778;2023-03-01T15:17:04;7.80;99.90
19552;DHT22;9921;47.186;9.778;2023-03-01T15:19:31;7.80;99.90
19552;DHT22;9921;47.186;9.778;2023-03-01T15:21:58;7.60;99.90
19552;DHT22;9921;47.186;9.778;2023-03-01T15:24:37;7.40;99.90
19552;DHT22;9921;47.186;9.778;2023-03-01T15:27:05;7.20;99.90
19552;DHT22;9921;47.186;9.778;2023-03-01T15:29:33;7.10;99.90
19552;DHT22;9921;47.186;9.778;2023-03-01T15:32:25;7.10;99.90
19552;DHT22;9921;47.186;9.778;2023-03-01T15:34:52;7.00;99.90
19552;DHT22;9921;47.186;9.778;2023-03-01T15:37:37;7.00;99.90
19552;DHT22;9921;47.186;9.778;2023-03-01T15:40:18;7.00;99.90
19552;DHT22;9921;47.186;9.778;2023-03-01T15:42:46;6.90;99.90
19552;DHT22;9921;47.186;9.778;2023-03-01T15:45:22;7.00;99.90
19552;DHT22;9921;47.186;9.778;2023-03-01T15:47:52;6.90;99.90
19552;DHT22;9921;47.186;9.778;2023-03-01T15:50:22;6.60;99.90
19552;DHT22;9921;47.186;9.778;2023-03-01T15:52:51;6.50;99.90
19552;DHT22;9921;47.186;9.778;2023-03-01T15:55:19;6.40;99.90
19552;DHT22;9921;47.186;9.778;2023-03-01T15:57:47;6.30;99.90
19552;DHT22;9921;47.186;9.778;2023-03-01T16:00:15;6.10;99.90
19552;DHT22;9921;47.186;9.778;2023-03-01T16:02:43;6.00;99.90
19552;DHT22;9921;47.186;9.778;2023-03-01T16:05:19;5.90;99.90
19552;DHT22;9921;47.186;9.778;2023-03-01T16:07:46;6.00;99.90
19552;DHT22;9921;47.186;9.778;2023-03-01T16:10:13;6.00;99.90
19552;DHT22;9921;47.186;9.778;2023-03-01T16:12:40;6.00;99.90
19552;DHT22;9921;47.186;9.778;2023-03-01T16:15:15;6.00;99.90
19552;DHT22;9921;47.186;9.778;2023-03-01T16:17:42;5.90;99.90
19552;DHT22;9921;47.186;9.778;2023-03-01T16:20:10;5.90;99.90
19552;DHT22;9921;47.186;9.778;2023-03-01T16:22:38;5.70;99.90
19552;DHT22;9921;47.186;9.778;2023-03-01T16:25:08;5.60;99.90
19552;DHT22;9921;47.186;9.778;2023-03-01T16:27:35;5.60;99.90